sensor_id;sensor_type;location;lat;lon;timestamp;temperature;humidity
18454;DHT22;9356;52.202;20.950;2022-08-11T00:00:04;22.40;61.10
18454;DHT22;9356;52.202;20.950;2022-08-11T00:01:13;22.40;61.00
18454;DHT22;9356;52.202;20.950;2022-08-11T00:02:31;22.40;60.80
18454;DHT22;9356;52.202;20.950;2022-08-11T00:03:35;22.40;60.60
18454;DHT22;9356;52.202;20.950;2022-08-11T00:04:46;19.30;58.90
18454;DHT22;9356;52.202;20.950;2022-08-11T00:05:51;22.30;60.80
18454;DHT22;9356;52.202;20.950;2022-08-11T00:07:05;22.30;61.00
18454;DHT22;9356;52.202;20.950;2022-08-11T00:08:19;22.30;60.80
18454;DHT22;9356;52.202;20.950;2022-08-11T00:09:37;22.30;60.80
18454;DHT22;9356;52.202;20.950;2022-08-11T00:10:42;22.30;61.60
18454;DHT22;9356;52.202;20.950;2022-08-11T00:11:56;22.40;60.90
18454;DHT22;9356;52.202;20.950;2022-08-11T00:13:04;22.30;60.60
18454;DHT22;9356;52.202;20.950;2022-08-11T00:14:17;22.30;60.80
18454;DHT22;9356;52.202;20.950;2022-08-11T00:15:26;22.30;61.10
18454;DHT22;9356;52.202;20.950;2022-08-11T00:16:32;22.30;61.00
18454;DHT22;9356;52.202;20.950;2022-08-11T00:17:37;22.30;60.80
18454;DHT22;9356;52.202;20.950;2022-08-11T00:18:44;22.30;60.90
18454;DHT22;9356;52.202;20.950;2022-08-11T00:19:49;22.30;61.00
18454;DHT22;9356;52.202;20.950;2022-08-11T00:21:14;22.30;60.80
18454;DHT22;9356;52.202;20.950;2022-08-11T00:22:20;22.30;61.00
18454;DHT22;9356;52.202;20.950;2022-08-11T00:23:25;22.20;60.80
18454;DHT22;9356;52.202;20.950;2022-08-11T00:24:37;22.30;60.90
18454;DHT22;9356;52.202;20.950;2022-08-11T00:25:56;25.20;62.90
18454;DHT22;9356;52.202;20.950;2022-08-11T00:27:03;22.30;61.00
18454;DHT22;9356;52.202;20.950;2022-08-11T00:28:26;22.30;61.00
18454;DHT22;9356;52.202;20.950;2022-08-11T00:29:31;22.30;61.10
18454;DHT22;9356;52.202;20.950;2022-08-11T00:30:39;22.30;61.10
18454;DHT22;9356;52.202;20.950;2022-08-11T00:31:47;22.30;61.00
18454;DHT22;9356;52.202;20.950;2022-08-11T00:32:54;22.30;61.10
18454;DHT22;9356;52.202;20.950;2022-08-11T00:34:02;22.30;61.90
18454;DHT22;9356;52.202;20.950;2022-08-11T00:35:12;23.40;61.80
18454;DHT22;9356;52.202;20.950;2022-08-11T00:36:42;22.30;61.10
18454;DHT22;9356;52.202;20.950;2022-08-11T00:37:50;22.30;60.90
18454;DHT22;9356;52.202;20.950;2022-08-11T00:39:03;22.20;61.10
18454;DHT22;9356;52.202;20.950;2022-08-11T00:40:17;22.20;61.00
18454;DHT22;9356;52.202;20.950;2022-08-11T00:41:33;22.10;61.30
18454;DHT22;9356;52.202;20.950;2022-08-11T00:42:47;22.20;61.40
18454;DHT22;9356;52.202;20.950;2022-08-11T00:45:30;22.10;61.30
18454;DHT22;9356;52.202;20.950;2022-08-11T00:46:45;22.10;61.30
18454;DHT22;9356;52.202;20.950;2022-08-11T00:48:02;22.10;61.40
18454;DHT22;9356;52.202;20.950;2022-08-11T00:49:17;22.10;61.40
18454;DHT22;9356;52.202;20.950;2022-08-11T00:50:34;22.10;61.40
18454;DHT22;9356;52.202;20.950;2022-08-11T00:51:51;22.10;61.50
18454;DHT22;9356;52.202;20.950;2022-08-11T00:53:29;22.10;61.50
18454;DHT22;9356;52.202;20.950;2022-08-11T00:55:09;22.10;61.60
18454;DHT22;9356;52.202;20.950;2022-08-11T00:56:59;22.00;61.50
18454;DHT22;9356;52.202;20.950;2022-08-11T01:01:04;22.00;61.60
18454;DHT22;9356;52.202;20.950;2022-08-11T01:02:18;22.00;61.60
18454;DHT22;9356;52.202;20.950;2022-08-11T01:03:55;22.00;61.70
18454;DHT22;9356;52.202;20.950;2022-08-11T01:05:50;22.00;61.80
18454;DHT22;9356;52.202;20.950;2022-08-11T01:07:31;22.00;61.70
18454;DHT22;9356;52.202;20.950;2022-08-11T01:09:27;21.90;61.70
18454;DHT22;9356;52.202;20.950;2022-08-11T01:10:58;21.90;62.00
18454;DHT22;9356;52.202;20.950;2022-08-11T01:16:05;21.90;62.10
18454;DHT22;9356;52.202;20.950;2022-08-11T01:19:46;21.90;62.00
18454;DHT22;9356;52.202;20.950;2022-08-11T01:21:44;21.80;62.10
18454;DHT22;9356;52.202;20.950;2022-08-11T01:23:26;21.80;62.20
18454;DHT22;9356;52.202;20.950;2022-08-11T01:31:19;21.80;62.20
18454;DHT22;9356;52.202;20.950;2022-08-11T01:33:12;21.80;62.10
18454;DHT22;9356;52.202;20.950;2022-08-11T01:34:57;21.90;62.20
18454;DHT22;9356;52.202;20.950;2022-08-11T01:36:49;21.90;62.30
18454;DHT22;9356;52.202;20.950;2022-08-11T01:38:30;21.80;62.20
18454;DHT22;9356;52.202;20.950;2022-08-11T01:41:58;21.80;62.20
18454;DHT22;9356;52.202;20.950;2022-08-11T01:43:52;21.80;62.10
18454;DHT22;9356;52.202;20.950;2022-08-11T01:45:31;21.80;62.40
18454;DHT22;9356;52.202;20.950;2022-08-11T01:46:45;21.80;62.50
18454;DHT22;9356;52.202;20.950;2022-08-11T01:48:01;21.70;62.30
18454;DHT22;9356;52.202;20.950;2022-08-11T01:49:14;21.80;62.40
18454;DHT22;9356;52.202;20.950;2022-08-11T01:51:02;21.70;62.60
18454;DHT22;9356;52.202;20.950;2022-08-11T01:52:14;21.70;62.40
18454;DHT22;9356;52.202;20.950;2022-08-11T01:53:33;21.70;62.60
18454;DHT22;9356;52.202;20.950;2022-08-11T01:54:48;21.70;62.90
18454;DHT22;9356;52.202;20.950;2022-08-11T01:56:09;21.70;62.80
18454;DHT22;9356;52.202;20.950;2022-08-11T01:57:28;21.70;62.70
18454;DHT22;9356;52.202;20.950;2022-08-11T01:58:42;21.70;62.70
18454;DHT22;9356;52.202;20.950;2022-08-11T01:59:51;21.70;62.60
18454;DHT22;9356;52.202;20.950;2022-08-11T02:01:08;21.60;62.50
18454;DHT22;9356;52.202;20.950;2022-08-11T02:02:32;21.70;62.90
18454;DHT22;9356;52.202;20.950;2022-08-11T02:03:57;21.60;62.80
18454;DHT22;9356;52.202;20.950;2022-08-11T02:05:13;21.60;62.70
18454;DHT22;9356;52.202;20.950;2022-08-11T02:06:36;21.60;62.80
18454;DHT22;9356;52.202;20.950;2022-08-11T02:08:07;21.60;62.90
18454;DHT22;9356;52.202;20.950;2022-08-11T02:09:32;21.60;62.90
18454;DHT22;9356;52.202;20.950;2022-08-11T02:11:00;21.60;63.00
18454;DHT22;9356;52.202;20.950;2022-08-11T02:12:43;21.60;62.80
18454;DHT22;9356;52.202;20.950;2022-08-11T02:14:02;21.60;63.20
18454;DHT22;9356;52.202;20.950;2022-08-11T02:15:14;21.50;63.10
18454;DHT22;9356;52.202;20.950;2022-08-11T02:16:35;21.60;63.40
18454;DHT22;9356;52.202;20.950;2022-08-11T02:17:52;20.90;62.90
18454;DHT22;9356;52.202;20.950;2022-08-11T02:19:10;21.50;63.20
18454;DHT22;9356;52.202;20.950;2022-08-11T02:20:45;21.50;63.30
18454;DHT22;9356;52.202;20.950;2022-08-11T02:22:24;21.60;63.40
18454;DHT22;9356;52.202;20.950;2022-08-11T02:23:56;21.50;63.50
18454;DHT22;9356;52.202;20.950;2022-08-11T02:25:19;21.50;63.50
18454;DHT22;9356;52.202;20.950;2022-08-11T02:26:31;21.50;63.60
18454;DHT22;9356;52.202;20.950;2022-08-11T02:27:42;21.40;63.30
18454;DHT22;9356;52.202;20.950;2022-08-11T02:28:59;21.40;63.80
18454;DHT22;9356;52.202;20.950;2022-08-11T02:30:08;21.40;63.90
18454;DHT22;9356;52.202;20.950;2022-08-11T02:33:42;21.50;64.10
18454;DHT22;9356;52.202;20.950;2022-08-11T02:34:54;21.50;64.00
18454;DHT22;9356;52.202;20.950;2022-08-11T02:36:07;21.50;63.90
18454;DHT22;9356;52.202;20.950;2022-08-11T02:37:19;21.50;63.90
18454;DHT22;9356;52.202;20.950;2022-08-11T02:38:31;21.50;64.00
18454;DHT22;9356;52.202;20.950;2022-08-11T02:39:46;21.50;64.30
18454;DHT22;9356;52.202;20.950;2022-08-11T02:41:00;21.40;64.20
18454;DHT22;9356;52.202;20.950;2022-08-11T02:42:19;19.90;62.90
18454;DHT22;9356;52.202;20.950;2022-08-11T02:43:52;21.40;63.90
18454;DHT22;9356;52.202;20.950;2022-08-11T02:45:15;21.40;64.20
18454;DHT22;9356;52.202;20.950;2022-08-11T02:46:26;21.30;64.30
18454;DHT22;9356;52.202;20.950;2022-08-11T02:47:38;21.30;64.70
18454;DHT22;9356;52.202;20.950;2022-08-11T02:48:56;21.30;64.60
18454;DHT22;9356;52.202;20.950;2022-08-11T02:50:22;21.30;64.80
18454;DHT22;9356;52.202;20.950;2022-08-11T02:51:36;21.30;65.00
18454;DHT22;9356;52.202;20.950;2022-08-11T02:52:54;21.40;64.90
18454;DHT22;9356;52.202;20.950;2022-08-11T02:54:22;21.30;64.70
18454;DHT22;9356;52.202;20.950;2022-08-11T02:55:34;21.40;64.90
18454;DHT22;9356;52.202;20.950;2022-08-11T02:57:17;21.30;64.80
18454;DHT22;9356;52.202;20.950;2022-08-11T02:58:35;21.20;64.70
18454;DHT22;9356;52.202;20.950;2022-08-11T02:59:46;21.20;65.10
18454;DHT22;9356;52.202;20.950;2022-08-11T03:01:05;21.20;65.10
18454;DHT22;9356;52.202;20.950;2022-08-11T03:02:25;21.20;64.90
18454;DHT22;9356;52.202;20.950;2022-08-11T03:03:43;21.20;65.00
18454;DHT22;9356;52.202;20.950;2022-08-11T03:05:03;21.20;65.20
18454;DHT22;9356;52.202;20.950;2022-08-11T03:06:18;21.20;65.20
18454;DHT22;9356;52.202;20.950;2022-08-11T03:07:27;21.20;65.30
18454;DHT22;9356;52.202;20.950;2022-08-11T03:08:52;21.20;65.10
18454;DHT22;9356;52.202;20.950;2022-08-11T03:10:04;21.20;65.00
18454;DHT22;9356;52.202;20.950;2022-08-11T03:11:16;21.20;65.00
18454;DHT22;9356;52.202;20.950;2022-08-11T03:12:46;21.30;64.90
18454;DHT22;9356;52.202;20.950;2022-08-11T03:14:18;18.00;62.60
18454;DHT22;9356;52.202;20.950;2022-08-11T03:15:51;21.30;64.80
18454;DHT22;9356;52.202;20.950;2022-08-11T03:17:27;21.30;65.00
18454;DHT22;9356;52.202;20.950;2022-08-11T03:18:40;21.40;64.50
18454;DHT22;9356;52.202;20.950;2022-08-11T03:19:54;21.30;64.50
18454;DHT22;9356;52.202;20.950;2022-08-11T03:21:06;21.20;64.50
18454;DHT22;9356;52.202;20.950;2022-08-11T03:22:21;21.20;64.80
18454;DHT22;9356;52.202;20.950;2022-08-11T03:23:32;21.30;64.70
18454;DHT22;9356;52.202;20.950;2022-08-11T03:24:52;21.20;64.80
18454;DHT22;9356;52.202;20.950;2022-08-11T03:26:04;21.30;64.50
18454;DHT22;9356;52.202;20.950;2022-08-11T03:27:26;21.30;64.90
18454;DHT22;9356;52.202;20.950;2022-08-11T03:28:35;21.30;64.70
18454;DHT22;9356;52.202;20.950;2022-08-11T03:29:46;21.40;64.60
18454;DHT22;9356;52.202;20.950;2022-08-11T03:31:09;21.30;64.40
18454;DHT22;9356;52.202;20.950;2022-08-11T03:32:24;21.40;64.50
18454;DHT22;9356;52.202;20.950;2022-08-11T03:33:32;21.40;64.70
18454;DHT22;9356;52.202;20.950;2022-08-11T03:34:57;21.30;64.40
18454;DHT22;9356;52.202;20.950;2022-08-11T03:36:15;21.30;64.10
18454;DHT22;9356;52.202;20.950;2022-08-11T03:37:40;21.40;64.50
18454;DHT22;9356;52.202;20.950;2022-08-11T03:39:05;21.40;64.40
18454;DHT22;9356;52.202;20.950;2022-08-11T03:42:05;21.40;64.30
18454;DHT22;9356;52.202;20.950;2022-08-11T03:43:26;21.50;64.30
18454;DHT22;9356;52.202;20.950;2022-08-11T03:44:47;21.10;63.90
18454;DHT22;9356;52.202;20.950;2022-08-11T03:46:02;21.50;63.90
18454;DHT22;9356;52.202;20.950;2022-08-11T03:47:27;21.60;64.00
18454;DHT22;9356;52.202;20.950;2022-08-11T03:48:42;21.80;63.60
18454;DHT22;9356;52.202;20.950;2022-08-11T03:50:01;22.00;63.00
18454;DHT22;9356;52.202;20.950;2022-08-11T03:51:18;22.20;62.50
18454;DHT22;9356;52.202;20.950;2022-08-11T03:52:47;22.40;61.70
18454;DHT22;9356;52.202;20.950;2022-08-11T03:54:06;22.70;61.30
18454;DHT22;9356;52.202;20.950;2022-08-11T03:55:30;23.00;60.80
18454;DHT22;9356;52.202;20.950;2022-08-11T03:58:53;23.20;60.30
18454;DHT22;9356;52.202;20.950;2022-08-11T04:00:22;23.10;59.70
18454;DHT22;9356;52.202;20.950;2022-08-11T04:01:47;23.00;60.00
18454;DHT22;9356;52.202;20.950;2022-08-11T04:03:24;22.90;59.90
18454;DHT22;9356;52.202;20.950;2022-08-11T04:06:53;22.90;60.60
18454;DHT22;9356;52.202;20.950;2022-08-11T04:08:35;22.90;60.20
18454;DHT22;9356;52.202;20.950;2022-08-11T04:12:13;23.20;59.60
18454;DHT22;9356;52.202;20.950;2022-08-11T04:14:10;23.30;59.40
18454;DHT22;9356;52.202;20.950;2022-08-11T04:16:06;23.50;59.20
18454;DHT22;9356;52.202;20.950;2022-08-11T04:17:49;23.60;58.90
18454;DHT22;9356;52.202;20.950;2022-08-11T04:19:52;23.70;58.70
18454;DHT22;9356;52.202;20.950;2022-08-11T04:21:19;23.80;58.40
18454;DHT22;9356;52.202;20.950;2022-08-11T04:22:52;23.80;58.40
18454;DHT22;9356;52.202;20.950;2022-08-11T04:24:37;23.90;58.50
18454;DHT22;9356;52.202;20.950;2022-08-11T04:26:20;23.90;58.50
18454;DHT22;9356;52.202;20.950;2022-08-11T04:29:20;24.00;58.20
18454;DHT22;9356;52.202;20.950;2022-08-11T04:33:15;24.10;58.40
18454;DHT22;9356;52.202;20.950;2022-08-11T04:34:56;24.20;58.30
18454;DHT22;9356;52.202;20.950;2022-08-11T04:38:08;24.30;58.10
18454;DHT22;9356;52.202;20.950;2022-08-11T04:39:33;24.40;57.80
18454;DHT22;9356;52.202;20.950;2022-08-11T04:40:55;24.70;57.70
18454;DHT22;9356;52.202;20.950;2022-08-11T04:43:05;24.40;57.30
18454;DHT22;9356;52.202;20.950;2022-08-11T04:46:39;24.60;57.60
18454;DHT22;9356;52.202;20.950;2022-08-11T04:48:00;24.70;57.00
18454;DHT22;9356;52.202;20.950;2022-08-11T04:49:57;24.70;57.20
18454;DHT22;9356;52.202;20.950;2022-08-11T04:53:33;24.80;57.40
18454;DHT22;9356;52.202;20.950;2022-08-11T04:57:13;25.00;57.00
18454;DHT22;9356;52.202;20.950;2022-08-11T05:00:56;23.20;55.50
18454;DHT22;9356;52.202;20.950;2022-08-11T05:04:37;25.40;55.90
18454;DHT22;9356;52.202;20.950;2022-08-11T05:06:35;25.50;55.80
18454;DHT22;9356;52.202;20.950;2022-08-11T05:09:45;25.60;55.80
18454;DHT22;9356;52.202;20.950;2022-08-11T05:11:17;25.60;55.70
18454;DHT22;9356;52.202;20.950;2022-08-11T05:12:31;25.70;55.50
18454;DHT22;9356;52.202;20.950;2022-08-11T05:13:46;25.80;55.20
18454;DHT22;9356;52.202;20.950;2022-08-11T05:15:12;25.80;55.00
18454;DHT22;9356;52.202;20.950;2022-08-11T05:16:50;25.80;55.00
18454;DHT22;9356;52.202;20.950;2022-08-11T05:18:23;25.80;55.30
18454;DHT22;9356;52.202;20.950;2022-08-11T05:19:46;25.80;55.00
18454;DHT22;9356;52.202;20.950;2022-08-11T05:21:10;25.80;55.20
18454;DHT22;9356;52.202;20.950;2022-08-11T05:22:49;25.80;55.20
18454;DHT22;9356;52.202;20.950;2022-08-11T05:24:19;25.80;55.60
18454;DHT22;9356;52.202;20.950;2022-08-11T05:25:45;25.90;54.70
18454;DHT22;9356;52.202;20.950;2022-08-11T05:27:34;25.90;54.70
18454;DHT22;9356;52.202;20.950;2022-08-11T05:29:02;26.00;55.20
18454;DHT22;9356;52.202;20.950;2022-08-11T05:30:28;26.00;54.70
18454;DHT22;9356;52.202;20.950;2022-08-11T05:31:57;26.00;55.10
18454;DHT22;9356;52.202;20.950;2022-08-11T05:33:29;26.10;55.30
18454;DHT22;9356;52.202;20.950;2022-08-11T05:34:55;26.10;54.40
18454;DHT22;9356;52.202;20.950;2022-08-11T05:36:15;26.10;54.40
18454;DHT22;9356;52.202;20.950;2022-08-11T05:37:30;26.10;54.20
18454;DHT22;9356;52.202;20.950;2022-08-11T05:38:36;26.00;54.50
18454;DHT22;9356;52.202;20.950;2022-08-11T05:40:05;26.00;54.30
18454;DHT22;9356;52.202;20.950;2022-08-11T05:41:30;26.00;54.80
18454;DHT22;9356;52.202;20.950;2022-08-11T05:42:57;26.00;54.40
18454;DHT22;9356;52.202;20.950;2022-08-11T05:44:22;26.00;55.40
18454;DHT22;9356;52.202;20.950;2022-08-11T05:45:44;26.00;55.10
18454;DHT22;9356;52.202;20.950;2022-08-11T05:47:24;26.10;54.30
18454;DHT22;9356;52.202;20.950;2022-08-11T05:48:47;26.10;54.80
18454;DHT22;9356;52.202;20.950;2022-08-11T05:50:12;26.00;54.20
18454;DHT22;9356;52.202;20.950;2022-08-11T05:51:36;26.20;54.50
18454;DHT22;9356;52.202;20.950;2022-08-11T05:53:09;26.20;54.30
18454;DHT22;9356;52.202;20.950;2022-08-11T05:54:45;26.20;54.00
18454;DHT22;9356;52.202;20.950;2022-08-11T05:56:09;26.30;54.30
18454;DHT22;9356;52.202;20.950;2022-08-11T05:57:21;26.30;54.10
18454;DHT22;9356;52.202;20.950;2022-08-11T05:58:50;26.20;54.90
18454;DHT22;9356;52.202;20.950;2022-08-11T06:00:01;26.20;54.20
18454;DHT22;9356;52.202;20.950;2022-08-11T06:01:07;26.20;54.00
18454;DHT22;9356;52.202;20.950;2022-08-11T06:02:13;26.10;54.70
18454;DHT22;9356;52.202;20.950;2022-08-11T06:03:25;26.00;55.40
18454;DHT22;9356;52.202;20.950;2022-08-11T06:04:30;26.00;54.90
18454;DHT22;9356;52.202;20.950;2022-08-11T06:05:36;26.10;55.30
18454;DHT22;9356;52.202;20.950;2022-08-11T06:06:48;26.20;55.60
18454;DHT22;9356;52.202;20.950;2022-08-11T06:07:54;26.30;54.60
18454;DHT22;9356;52.202;20.950;2022-08-11T06:08:59;26.40;55.00
18454;DHT22;9356;52.202;20.950;2022-08-11T06:10:03;26.40;54.30
18454;DHT22;9356;52.202;20.950;2022-08-11T06:11:09;26.30;55.70
18454;DHT22;9356;52.202;20.950;2022-08-11T06:12:18;26.40;54.80
18454;DHT22;9356;52.202;20.950;2022-08-11T06:13:25;26.40;55.30
18454;DHT22;9356;52.202;20.950;2022-08-11T06:14:29;26.50;55.20
18454;DHT22;9356;52.202;20.950;2022-08-11T06:15:46;26.60;55.50
18454;DHT22;9356;52.202;20.950;2022-08-11T06:16:51;25.30;54.60
18454;DHT22;9356;52.202;20.950;2022-08-11T06:17:58;27.00;55.10
18454;DHT22;9356;52.202;20.950;2022-08-11T06:19:03;27.20;55.00
18454;DHT22;9356;52.202;20.950;2022-08-11T06:20:09;27.40;54.40
18454;DHT22;9356;52.202;20.950;2022-08-11T06:21:15;27.60;53.20
18454;DHT22;9356;52.202;20.950;2022-08-11T06:22:21;27.70;53.20
18454;DHT22;9356;52.202;20.950;2022-08-11T06:23:31;27.80;52.40
18454;DHT22;9356;52.202;20.950;2022-08-11T06:24:40;27.70;52.50
18454;DHT22;9356;52.202;20.950;2022-08-11T06:25:47;27.70;52.80
18454;DHT22;9356;52.202;20.950;2022-08-11T06:26:53;27.80;52.60
18454;DHT22;9356;52.202;20.950;2022-08-11T06:28:15;27.70;52.40
18454;DHT22;9356;52.202;20.950;2022-08-11T06:29:24;27.80;52.40
18454;DHT22;9356;52.202;20.950;2022-08-11T06:30:50;27.80;52.50
18454;DHT22;9356;52.202;20.950;2022-08-11T06:31:57;27.80;53.00
18454;DHT22;9356;52.202;20.950;2022-08-11T06:33:05;27.90;53.00
18454;DHT22;9356;52.202;20.950;2022-08-11T06:34:14;27.90;53.90
18454;DHT22;9356;52.202;20.950;2022-08-11T06:35:37;26.90;53.00
18454;DHT22;9356;52.202;20.950;2022-08-11T06:36:54;28.00;53.00
18454;DHT22;9356;52.202;20.950;2022-08-11T06:38:08;28.00;52.20
18454;DHT22;9356;52.202;20.950;2022-08-11T06:39:21;27.90;53.00
18454;DHT22;9356;52.202;20.950;2022-08-11T06:40:34;27.80;52.70
18454;DHT22;9356;52.202;20.950;2022-08-11T06:41:45;27.70;53.40
18454;DHT22;9356;52.202;20.950;2022-08-11T06:42:53;27.70;53.10
18454;DHT22;9356;52.202;20.950;2022-08-11T06:44:13;27.80;52.90
18454;DHT22;9356;52.202;20.950;2022-08-11T06:45:29;27.70;52.90
18454;DHT22;9356;52.202;20.950;2022-08-11T06:46:40;27.60;52.50
18454;DHT22;9356;52.202;20.950;2022-08-11T06:47:46;27.50;53.70
18454;DHT22;9356;52.202;20.950;2022-08-11T06:48:52;27.40;53.50
18454;DHT22;9356;52.202;20.950;2022-08-11T06:49:58;27.40;53.10
18454;DHT22;9356;52.202;20.950;2022-08-11T06:51:34;27.20;53.10
18454;DHT22;9356;52.202;20.950;2022-08-11T06:52:46;23.90;51.80
18454;DHT22;9356;52.202;20.950;2022-08-11T06:53:56;26.80;53.40
18454;DHT22;9356;52.202;20.950;2022-08-11T06:55:10;26.60;53.50
18454;DHT22;9356;52.202;20.950;2022-08-11T06:56:35;26.40;54.60
18454;DHT22;9356;52.202;20.950;2022-08-11T06:58:20;26.40;54.90
18454;DHT22;9356;52.202;20.950;2022-08-11T06:59:48;26.40;55.70
18454;DHT22;9356;52.202;20.950;2022-08-11T07:01:13;26.40;55.20
18454;DHT22;9356;52.202;20.950;2022-08-11T07:02:24;26.50;54.80
18454;DHT22;9356;52.202;20.950;2022-08-11T07:03:38;26.50;54.40
18454;DHT22;9356;52.202;20.950;2022-08-11T07:04:46;26.60;54.30
18454;DHT22;9356;52.202;20.950;2022-08-11T07:05:56;26.70;54.70
18454;DHT22;9356;52.202;20.950;2022-08-11T07:07:35;26.60;54.10
18454;DHT22;9356;52.202;20.950;2022-08-11T07:09:44;26.60;54.20
18454;DHT22;9356;52.202;20.950;2022-08-11T07:11:43;26.50;54.50
18454;DHT22;9356;52.202;20.950;2022-08-11T07:13:09;26.50;54.30
18454;DHT22;9356;52.202;20.950;2022-08-11T07:14:50;26.50;54.60
18454;DHT22;9356;52.202;20.950;2022-08-11T07:16:13;26.50;54.50
18454;DHT22;9356;52.202;20.950;2022-08-11T07:17:22;26.50;54.20
18454;DHT22;9356;52.202;20.950;2022-08-11T07:18:28;25.10;53.60
18454;DHT22;9356;52.202;20.950;2022-08-11T07:19:53;23.20;52.90
18454;DHT22;9356;52.202;20.950;2022-08-11T07:21:22;26.00;55.10
18454;DHT22;9356;52.202;20.950;2022-08-11T07:23:09;26.00;55.70
18454;DHT22;9356;52.202;20.950;2022-08-11T07:24:37;26.00;56.20
18454;DHT22;9356;52.202;20.950;2022-08-11T07:26:03;26.10;55.80
18454;DHT22;9356;52.202;20.950;2022-08-11T07:27:31;26.10;55.70
18454;DHT22;9356;52.202;20.950;2022-08-11T07:28:58;28.90;57.60
18454;DHT22;9356;52.202;20.950;2022-08-11T07:30:06;25.30;55.10
18454;DHT22;9356;52.202;20.950;2022-08-11T07:31:15;26.30;55.80
18454;DHT22;9356;52.202;20.950;2022-08-11T07:32:25;29.20;56.90
18454;DHT22;9356;52.202;20.950;2022-08-11T07:33:38;26.10;54.90
18454;DHT22;9356;52.202;20.950;2022-08-11T07:35:09;26.00;55.50
18454;DHT22;9356;52.202;20.950;2022-08-11T07:36:16;23.50;54.60
18454;DHT22;9356;52.202;20.950;2022-08-11T07:37:21;26.00;55.50
18454;DHT22;9356;52.202;20.950;2022-08-11T07:38:37;26.00;55.00
18454;DHT22;9356;52.202;20.950;2022-08-11T07:39:50;26.00;55.50
18454;DHT22;9356;52.202;20.950;2022-08-11T07:40:57;23.50;53.80
18454;DHT22;9356;52.202;20.950;2022-08-11T07:42:10;25.90;55.30
18454;DHT22;9356;52.202;20.950;2022-08-11T07:43:15;25.80;55.70
18454;DHT22;9356;52.202;20.950;2022-08-11T07:44:18;25.70;55.90
18454;DHT22;9356;52.202;20.950;2022-08-11T07:45:24;25.70;56.70
18454;DHT22;9356;52.202;20.950;2022-08-11T07:46:48;25.70;56.70
18454;DHT22;9356;52.202;20.950;2022-08-11T07:48:11;25.80;56.20
18454;DHT22;9356;52.202;20.950;2022-08-11T07:49:37;25.80;55.70
18454;DHT22;9356;52.202;20.950;2022-08-11T07:50:59;25.80;55.20
18454;DHT22;9356;52.202;20.950;2022-08-11T07:52:22;25.80;55.50
18454;DHT22;9356;52.202;20.950;2022-08-11T07:53:33;25.70;55.10
18454;DHT22;9356;52.202;20.950;2022-08-11T07:55:07;28.00;57.10
18454;DHT22;9356;52.202;20.950;2022-08-11T07:56:16;25.90;56.20
18454;DHT22;9356;52.202;20.950;2022-08-11T07:57:44;25.90;56.50
18454;DHT22;9356;52.202;20.950;2022-08-11T07:59:22;26.00;55.40
18454;DHT22;9356;52.202;20.950;2022-08-11T08:01:02;26.10;55.20
18454;DHT22;9356;52.202;20.950;2022-08-11T08:02:24;26.20;55.40
18454;DHT22;9356;52.202;20.950;2022-08-11T08:03:48;26.30;56.00
18454;DHT22;9356;52.202;20.950;2022-08-11T08:05:09;26.40;54.70
18454;DHT22;9356;52.202;20.950;2022-08-11T08:06:32;26.50;55.00
18454;DHT22;9356;52.202;20.950;2022-08-11T08:07:54;26.50;54.80
18454;DHT22;9356;52.202;20.950;2022-08-11T08:09:20;26.50;55.60
18454;DHT22;9356;52.202;20.950;2022-08-11T08:10:42;26.50;54.40
18454;DHT22;9356;52.202;20.950;2022-08-11T08:12:05;26.50;54.30
18454;DHT22;9356;52.202;20.950;2022-08-11T08:13:27;26.40;54.40
18454;DHT22;9356;52.202;20.950;2022-08-11T08:14:53;28.20;56.00
18454;DHT22;9356;52.202;20.950;2022-08-11T08:16:15;26.20;55.80
18454;DHT22;9356;52.202;20.950;2022-08-11T08:17:37;26.30;55.80
18454;DHT22;9356;52.202;20.950;2022-08-11T08:19:18;26.30;54.90
18454;DHT22;9356;52.202;20.950;2022-08-11T08:20:25;26.10;55.00
18454;DHT22;9356;52.202;20.950;2022-08-11T08:21:29;24.00;53.70
18454;DHT22;9356;52.202;20.950;2022-08-11T08:22:34;27.60;56.10
18454;DHT22;9356;52.202;20.950;2022-08-11T08:23:50;26.30;55.90
18454;DHT22;9356;52.202;20.950;2022-08-11T08:24:58;26.40;55.00
18454;DHT22;9356;52.202;20.950;2022-08-11T08:26:06;26.50;55.00
18454;DHT22;9356;52.202;20.950;2022-08-11T08:27:32;26.60;54.80
18454;DHT22;9356;52.202;20.950;2022-08-11T08:28:36;26.60;54.70
18454;DHT22;9356;52.202;20.950;2022-08-11T08:29:43;26.60;54.40
18454;DHT22;9356;52.202;20.950;2022-08-11T08:31:05;26.60;54.40
18454;DHT22;9356;52.202;20.950;2022-08-11T08:32:08;26.40;54.60
18454;DHT22;9356;52.202;20.950;2022-08-11T08:33:14;26.40;54.40
18454;DHT22;9356;52.202;20.950;2022-08-11T08:34:22;26.40;54.10
18454;DHT22;9356;52.202;20.950;2022-08-11T08:35:26;26.30;53.70
18454;DHT22;9356;52.202;20.950;2022-08-11T08:36:35;26.20;53.90
18454;DHT22;9356;52.202;20.950;2022-08-11T08:37:37;26.00;54.30
18454;DHT22;9356;52.202;20.950;2022-08-11T08:38:52;25.90;54.70
18454;DHT22;9356;52.202;20.950;2022-08-11T08:39:56;25.90;55.30
18454;DHT22;9356;52.202;20.950;2022-08-11T08:41:01;25.90;55.50
18454;DHT22;9356;52.202;20.950;2022-08-11T08:42:09;25.90;54.40
18454;DHT22;9356;52.202;20.950;2022-08-11T08:43:16;25.90;55.10
18454;DHT22;9356;52.202;20.950;2022-08-11T08:44:22;25.90;54.80
18454;DHT22;9356;52.202;20.950;2022-08-11T08:45:45;25.90;55.10
18454;DHT22;9356;52.202;20.950;2022-08-11T08:46:53;26.00;55.20
18454;DHT22;9356;52.202;20.950;2022-08-11T08:47:59;26.10;55.60
18454;DHT22;9356;52.202;20.950;2022-08-11T08:49:05;26.30;56.00
18454;DHT22;9356;52.202;20.950;2022-08-11T08:50:12;26.50;55.50
18454;DHT22;9356;52.202;20.950;2022-08-11T08:51:18;26.50;54.70
18454;DHT22;9356;52.202;20.950;2022-08-11T08:53:02;26.40;54.30
18454;DHT22;9356;52.202;20.950;2022-08-11T08:54:11;26.40;54.60
18454;DHT22;9356;52.202;20.950;2022-08-11T08:55:18;26.40;54.40
18454;DHT22;9356;52.202;20.950;2022-08-11T08:56:26;26.40;54.20
18454;DHT22;9356;52.202;20.950;2022-08-11T08:57:33;26.60;54.80
18454;DHT22;9356;52.202;20.950;2022-08-11T08:58:42;26.30;54.00
18454;DHT22;9356;52.202;20.950;2022-08-11T08:59:49;26.30;54.00
18454;DHT22;9356;52.202;20.950;2022-08-11T09:00:55;26.40;54.00
18454;DHT22;9356;52.202;20.950;2022-08-11T09:02:01;26.40;54.70
18454;DHT22;9356;52.202;20.950;2022-08-11T09:03:05;26.20;54.40
18454;DHT22;9356;52.202;20.950;2022-08-11T09:04:30;26.20;54.70
18454;DHT22;9356;52.202;20.950;2022-08-11T09:05:36;26.30;54.70
18454;DHT22;9356;52.202;20.950;2022-08-11T09:06:41;26.40;55.00
18454;DHT22;9356;52.202;20.950;2022-08-11T09:07:54;26.50;55.30
18454;DHT22;9356;52.202;20.950;2022-08-11T09:08:59;26.50;54.30
18454;DHT22;9356;52.202;20.950;2022-08-11T09:10:04;26.60;54.50
18454;DHT22;9356;52.202;20.950;2022-08-11T09:11:10;26.70;53.50